Terminal Aerodrome Forecast
Issued by NWS

Home | Current Version | Previous Version | Text Only | Print | Product List | Glossary On
Versions: 1 2 3 4 5 6 7 8 9 10 11 12 13 14 15 16 17 18 19 20 21 22 23 24 25 26 27 28
331
FTUS43 KGLD 300643 AAA
TAFMCK
TAF AMD
KMCK 300643Z 3007/0106 03009KT 6SM BR SCT006 OVC018
      TEMPO 3007/3009 5SM -RA BR BKN006
     FM300900 01010KT 4SM -RA BR OVC006
     FM301100 35009KT 3SM RA OVC003
     FM301400 34015G23KT 3SM -SHRA OVC003
     FM301700 35017G24KT 5SM -SHRA OVC008
     FM301800 35018G25KT P6SM VCSH OVC010=

USA.gov is the U.S. government's official web portal to all federal, state and local government web resources and services.